Time;durP1;ratioP1;P1;durP2;ratioP2;P2;SDS_P1;SDS_P2;PMS_P1;PMS_P2;Temp;Humidity;BMP_temperature;BMP_pressure;BME280_temperature;BME280_humidity;BME280_pressure;Samples;Min_cycle;Max_cycle;Signal;HPM_P1;HPM_P2
2022/10/31 00:00:42;;;;;;;60.13;28.13;;;;;;;;;;5072006;28;20411;-62
2022/10/31 00:03:08;;;;;;;67.17;28.63;;;;;;;;;;5072103;28;20052;-62
2022/10/31 00:05:34;;;;;;;63.70;29.97;;;;;;;;;;5070442;28;20055;-62
2022/10/31 00:08:00;;;;;;;60.97;28.27;;;;;;;;;;5071864;28;20040;-62
2022/10/31 00:10:26;;;;;;;63.23;28.43;;;;;;;;;;5071877;28;20060;-62
2022/10/31 00:12:52;;;;;;;59.77;25.80;;;;;;;;;;5053970;28;20045;-62
2022/10/31 00:15:18;;;;;;;55.87;26.67;;;;;;;;;;5051762;28;20170;-62
2022/10/31 00:17:44;;;;;;;60.53;27.57;;;;;;;;;;5051400;28;20099;-62
2022/10/31 00:20:10;;;;;;;59.27;27.20;;;;;;;;;;5051719;28;20045;-62
2022/10/31 00:22:36;;;;;;;64.37;28.27;;;;;;;;;;5052627;28;20115;-62
2022/10/31 00:25:02;;;;;;;60.93;28.83;;;;;;;;;;5051848;28;20075;-62
2022/10/31 00:27:28;;;;;;;66.70;29.73;;;;;;;;;;5051511;28;20067;-62
2022/10/31 00:29:54;;;;;;;57.20;27.20;;;;;;;;;;5060538;28;20041;-62
2022/10/31 00:32:20;;;;;;;54.37;26.23;;;;;;;;;;5071175;28;20099;-62
2022/10/31 00:34:46;;;;;;;60.67;28.63;;;;;;;;;;5071205;28;20576;-62
2022/10/31 00:37:12;;;;;;;66.93;30.93;;;;;;;;;;5071201;28;20041;-62
2022/10/31 00:39:38;;;;;;;62.77;31.40;;;;;;;;;;5071264;28;20525;-62
2022/10/31 00:42:04;;;;;;;67.00;31.53;;;;;;;;;;5071672;28;20162;-62
2022/10/31 00:44:30;;;;;;;61.83;29.03;;;;;;;;;;5062509;28;20060;-62
2022/10/31 00:46:56;;;;;;;72.40;31.33;;;;;;;;;;5051302;28;20037;-62
2022/10/31 00:49:22;;;;;;;70.20;32.33;;;;;;;;;;5051249;28;20458;-62
2022/10/31 00:51:48;;;;;;;76.07;34.43;;;;;;;;;;5051183;28;20092;-62
2022/10/31 00:54:14;;;;;;;72.17;32.47;;;;;;;;;;5050539;28;20049;-62
2022/10/31 00:56:40;;;;;;;72.10;32.27;;;;;;;;;;5051087;28;20045;-62
2022/10/31 00:59:06;;;;;;;72.90;31.17;;;;;;;;;;5057751;28;20086;-62
2022/10/31 01:01:32;;;;;;;72.20;30.93;;;;;;;;;;5070569;28;20037;-62
2022/10/31 01:03:58;;;;;;;73.47;32.40;;;;;;;;;;5071068;28;20041;-62
2022/10/31 01:06:24;;;;;;;83.83;34.90;;;;;;;;;;5070840;28;20037;-62
2022/10/31 01:08:50;;;;;;;82.63;36.77;;;;;;;;;;5070165;28;20454;-62
2022/10/31 01:11:19;;;;;;;88.97;38.47;;;;;;;;;;5070823;28;20060;-62
2022/10/31 01:13:45;;;;;;;94.03;40.63;;;;;;;;;;5051023;28;20467;-62
2022/10/31 01:16:12;;;;;;;94.63;38.97;;;;;;;;;;5050383;28;20459;-62
2022/10/31 01:18:38;;;;;;;85.53;37.80;;;;;;;;;;5060928;28;20048;-63
2022/10/31 01:21:09;;;;;;;116.50;44.60;;;;;;;;;;5070123;28;20049;-62
2022/10/31 01:23:35;;;;;;;95.60;40.93;;;;;;;;;;5070467;28;20041;-62
2022/10/31 01:26:06;;;;;;;100.07;41.33;;;;;;;;;;5070674;28;20106;-63
2022/10/31 01:28:33;;;;;;;87.97;41.00;;;;;;;;;;5070306;28;20045;-62
2022/10/31 01:31:06;;;;;;;85.47;39.97;;;;;;;;;;5053308;28;20041;-62
2022/10/31 01:33:32;;;;;;;87.90;36.40;;;;;;;;;;5049981;28;20121;-62
2022/10/31 01:35:58;;;;;;;90.27;38.17;;;;;;;;;;5050391;28;20075;-62
2022/10/31 01:38:25;;;;;;;84.83;37.33;;;;;;;;;;5050599;28;20140;-62
2022/10/31 01:40:51;;;;;;;75.13;35.50;;;;;;;;;;5048540;28;20496;-63
2022/10/31 01:43:17;;;;;;;73.17;35.60;;;;;;;;;;5048812;28;20487;-62
2022/10/31 01:45:45;;;;;;;79.57;35.00;;;;;;;;;;5049451;28;20075;-62
2022/10/31 01:48:16;;;;;;;87.30;38.77;;;;;;;;;;5049797;28;20132;-62
2022/10/31 01:50:43;;;;;;;98.37;41.67;;;;;;;;;;5049489;28;20122;-62
2022/10/31 01:53:10;;;;;;;83.97;37.33;;;;;;;;;;5050242;28;20048;-62
2022/10/31 01:55:39;;;;;;;80.23;34.70;;;;;;;;;;5048780;28;20530;-62
2022/10/31 01:58:07;;;;;;;69.37;33.27;;;;;;;;;;5050039;28;20487;-62
2022/10/31 02:00:33;;;;;;;67.30;32.17;;;;;;;;;;5066688;28;20059;-62
2022/10/31 02:03:00;;;;;;;72.67;35.63;;;;;;;;;;5069569;28;20045;-62
2022/10/31 02:05:28;;;;;;;88.47;39.30;;;;;;;;;;5069620;28;20044;-62
2022/10/31 02:07:57;;;;;;;88.83;39.47;;;;;;;;;;5068359;28;20048;-62
2022/10/31 02:10:23;;;;;;;84.93;40.17;;;;;;;;;;5070047;28;20056;-62
2022/10/31 02:12:54;;;;;;;87.67;41.17;;;;;;;;;;5069554;28;20533;-62
2022/10/31 02:15:20;;;;;;;78.10;36.77;;;;;;;;;;5067502;28;20049;-62
2022/10/31 02:17:46;;;;;;;83.23;39.10;;;;;;;;;;5068611;28;20048;-62
2022/10/31 02:20:12;;;;;;;70.37;33.63;;;;;;;;;;5069405;28;20044;-62
2022/10/31 02:22:59;;;;;;;83.17;36.67;;;;;;;;;;5069478;28;20060;-63
2022/10/31 02:25:27;;;;;;;74.43;34.43;;;;;;;;;;5057415;28;20044;-63
2022/10/31 02:28:05;;;;;;;66.00;32.93;;;;;;;;;;5068988;28;20048;-62
2022/10/31 02:30:49;;;;;;;71.83;33.33;;;;;;;;;;5049132;28;20048;-63
2022/10/31 02:33:16;;;;;;;65.83;32.40;;;;;;;;;;5048831;28;20053;-62
2022/10/31 02:35:47;;;;;;;59.30;30.47;;;;;;;;;;5049246;28;20140;-62
2022/10/31 02:38:13;;;;;;;71.57;34.73;;;;;;;;;;5048955;28;20036;-63
2022/10/31 02:40:50;;;;;;;70.13;34.10;;;;;;;;;;5055558;28;20045;-63
2022/10/31 02:43:22;;;;;;;59.40;32.73;;;;;;;;;;5068435;28;20132;-62
2022/10/31 02:45:51;;;;;;;66.50;33.23;;;;;;;;;;5069109;28;20525;-63
2022/10/31 02:48:22;;;;;;;73.50;34.93;;;;;;;;;;5068755;28;20048;-62
2022/10/31 02:50:54;;;;;;;78.47;36.90;;;;;;;;;;5068738;28;20514;-63
2022/10/31 02:53:20;;;;;;;85.60;37.40;;;;;;;;;;5068068;28;20052;-63
2022/10/31 02:55:49;;;;;;;75.83;35.47;;;;;;;;;;5057276;28;20060;-62
2022/10/31 02:58:18;;;;;;;71.47;36.37;;;;;;;;;;5048763;28;20513;-63
2022/10/31 03:00:53;;;;;;;84.97;38.77;;;;;;;;;;5048590;28;20400;-63
2022/10/31 03:03:31;;;;;;;76.73;34.73;;;;;;;;;;5048517;28;20052;-62
2022/10/31 03:06:15;;;;;;;73.03;33.50;;;;;;;;;;5047874;28;20454;-62
2022/10/31 03:08:41;;;;;;;90.55;39.53;;;;;;;;;;5050735;28;20488;-62
2022/10/31 03:11:08;;;;;;;95.43;40.20;;;;;;;;;;5062828;28;20076;-62
2022/10/31 03:13:47;;;;;;;84.87;36.80;;;;;;;;;;5048093;28;20048;-62
2022/10/31 03:16:15;;;;;;;79.50;35.77;;;;;;;;;;5048579;28;20056;-63
2022/10/31 03:18:47;;;;;;;90.77;39.70;;;;;;;;;;5048243;28;20415;-62
2022/10/31 03:21:36;;;;;;;87.40;38.37;;;;;;;;;;5048622;28;20045;-62
2022/10/31 03:24:03;;;;;;;75.30;36.20;;;;;;;;;;5045529;28;20049;-62
2022/10/31 03:26:29;;;;;;;98.13;42.47;;;;;;;;;;5047762;28;20048;-62
2022/10/31 03:29:04;;;;;;;92.13;39.57;;;;;;;;;;5047496;28;20083;-62
2022/10/31 03:31:34;;;;;;;83.90;39.60;;;;;;;;;;5048269;28;20052;-63
2022/10/31 03:34:01;;;;;;;86.83;39.77;;;;;;;;;;5047955;28;20049;-62
2022/10/31 03:36:28;;;;;;;95.43;40.13;;;;;;;;;;5046948;28;20049;-62
2022/10/31 03:38:55;;;;;;;99.13;39.63;;;;;;;;;;5048515;28;20248;-63
2022/10/31 03:41:24;;;;;;;96.30;40.60;;;;;;;;;;5055972;28;20033;-62
2022/10/31 03:44:00;;;;;;;78.07;35.27;;;;;;;;;;5068129;28;20049;-62
2022/10/31 03:46:26;;;;;;;111.47;41.90;;;;;;;;;;5067970;28;20698;-62
2022/10/31 03:48:52;;;;;;;84.50;35.97;;;;;;;;;;5068441;28;20387;-62
2022/10/31 03:51:23;;;;;;;73.77;36.20;;;;;;;;;;5067743;28;20060;-62
2022/10/31 03:54:03;;;;;;;90.03;37.20;;;;;;;;;;5039153;28;20044;-63
2022/10/31 03:56:37;;;;;;;81.97;39.70;;;;;;;;;;5047911;28;20049;-63
2022/10/31 03:59:03;;;;;;;;;;;;;;;;;;5048517;28;20515;-62
2022/10/31 04:01:31;;;;;;;87.70;38.70;;;;;;;;;;5048144;28;19920;-62
2022/10/31 04:03:58;;;;;;;86.17;40.13;;;;;;;;;;5047477;28;20518;-63
2022/10/31 04:06:25;;;;;;;104.40;43.70;;;;;;;;;;5047730;28;20045;-62
2022/10/31 04:09:02;;;;;;;96.57;41.67;;;;;;;;;;5048515;28;20082;-62
2022/10/31 04:11:30;;;;;;;115.90;46.43;;;;;;;;;;5047423;28;20408;-62
2022/10/31 04:13:57;;;;;;;87.30;40.17;;;;;;;;;;5047512;28;20045;-62
2022/10/31 04:16:24;;;;;;;92.57;39.33;;;;;;;;;;5047847;28;20421;-62
2022/10/31 04:18:50;;;;;;;94.90;41.10;;;;;;;;;;5047870;28;20041;-62
2022/10/31 04:21:17;;;;;;;88.23;38.30;;;;;;;;;;5047940;28;20103;-62
2022/10/31 04:23:43;;;;;;;67.63;32.93;;;;;;;;;;5047762;28;20483;-62
2022/10/31 04:26:12;;;;;;;73.43;35.47;;;;;;;;;;5047725;28;20430;-62
2022/10/31 04:28:38;;;;;;;81.07;37.80;;;;;;;;;;5047759;28;20045;-62
2022/10/31 04:31:04;;;;;;;98.93;41.07;;;;;;;;;;5048004;28;20049;-62
2022/10/31 04:33:30;;;;;;;79.30;34.60;;;;;;;;;;5047886;28;20415;-62
2022/10/31 04:35:56;;;;;;;98.03;39.90;;;;;;;;;;5048489;28;20045;-62
2022/10/31 04:38:22;;;;;;;61.03;29.93;;;;;;;;;;5048389;28;20557;-62
2022/10/31 04:40:48;;;;;;;56.87;28.77;;;;;;;;;;5050607;28;20099;-62
2022/10/31 04:43:14;;;;;;;106.80;43.63;;;;;;;;;;5052075;28;20099;-62
2022/10/31 04:45:40;;;;;;;80.60;36.70;;;;;;;;;;5051576;28;20517;-62
2022/10/31 04:48:06;;;;;;;87.80;36.43;;;;;;;;;;5050599;28;20111;-62
2022/10/31 04:50:32;;;;;;;70.00;31.73;;;;;;;;;;5051889;28;20052;-63
2022/10/31 04:52:58;;;;;;;69.43;31.37;;;;;;;;;;5051026;28;20049;-63
2022/10/31 04:55:24;;;;;;;82.03;35.27;;;;;;;;;;5051557;28;20094;-63
2022/10/31 04:57:51;;;;;;;110.87;44.20;;;;;;;;;;5050208;28;20051;-62
2022/10/31 05:00:18;;;;;;;68.63;34.17;;;;;;;;;;5051656;28;20045;-62
2022/10/31 05:02:48;;;;;;;60.10;32.73;;;;;;;;;;5052237;28;20537;-62
2022/10/31 05:05:14;;;;;;;78.57;34.53;;;;;;;;;;5058815;28;20045;-62
2022/10/31 05:07:42;;;;;;;80.73;36.70;;;;;;;;;;5071995;28;20097;-62
2022/10/31 05:10:09;;;;;;;105.63;43.43;;;;;;;;;;5067308;28;20044;-62
2022/10/31 05:12:35;;;;;;;96.70;42.47;;;;;;;;;;5051829;28;20057;-62
2022/10/31 05:15:02;;;;;;;106.20;43.80;;;;;;;;;;5051520;28;20099;-62
2022/10/31 05:17:28;;;;;;;117.80;47.00;;;;;;;;;;5051444;28;20515;-63
2022/10/31 05:19:54;;;;;;;75.47;36.07;;;;;;;;;;5051523;28;20091;-62
2022/10/31 05:22:20;;;;;;;95.67;40.87;;;;;;;;;;5051317;28;20410;-62
2022/10/31 05:24:46;;;;;;;77.90;37.17;;;;;;;;;;5053476;28;20045;-62
2022/10/31 05:27:12;;;;;;;105.73;42.87;;;;;;;;;;5055547;28;20056;-62
2022/10/31 05:29:38;;;;;;;101.07;40.40;;;;;;;;;;5060709;28;20049;-63
2022/10/31 05:32:04;;;;;;;65.67;31.20;;;;;;;;;;5057589;28;20091;-62
2022/10/31 05:34:30;;;;;;;83.33;34.20;;;;;;;;;;5061489;28;20061;-62
2022/10/31 05:36:56;;;;;;;93.30;40.77;;;;;;;;;;5071384;28;20051;-62
2022/10/31 05:39:22;;;;;;;73.33;31.97;;;;;;;;;;5071403;28;20577;-62
2022/10/31 05:41:48;;;;;;;58.37;30.43;;;;;;;;;;5052719;28;20053;-62
2022/10/31 05:44:14;;;;;;;62.53;30.47;;;;;;;;;;5054740;28;20413;-62
2022/10/31 05:46:40;;;;;;;93.20;36.80;;;;;;;;;;5066396;28;20040;-62
2022/10/31 05:49:06;;;;;;;81.00;33.93;;;;;;;;;;5070232;28;20032;-62
2022/10/31 05:51:32;;;;;;;88.57;35.40;;;;;;;;;;5068306;28;20067;-62
2022/10/31 05:53:59;;;;;;;97.87;38.27;;;;;;;;;;5069374;28;20044;-62
2022/10/31 05:56:25;;;;;;;71.83;30.87;;;;;;;;;;5070197;28;20415;-62
2022/10/31 05:58:51;;;;;;;73.13;31.73;;;;;;;;;;5065461;28;20044;-62
2022/10/31 06:01:17;;;;;;;60.43;28.93;;;;;;;;;;5069812;28;20044;-62
2022/10/31 06:03:43;;;;;;;66.07;28.97;;;;;;;;;;5070082;28;20036;-62
2022/10/31 06:06:09;;;;;;;61.20;28.13;;;;;;;;;;5069398;28;20059;-62
2022/10/31 06:08:35;;;;;;;64.43;27.67;;;;;;;;;;5065115;28;20044;-62
2022/10/31 06:11:01;;;;;;;67.63;29.93;;;;;;;;;;5069704;28;20040;-62
2022/10/31 06:13:27;;;;;;;83.63;34.77;;;;;;;;;;5065295;28;20048;-62
2022/10/31 06:15:53;;;;;;;57.60;28.50;;;;;;;;;;5067695;28;20521;-62
2022/10/31 06:18:19;;;;;;;82.90;33.87;;;;;;;;;;5069673;28;20052;-62
2022/10/31 06:20:45;;;;;;;69.63;31.83;;;;;;;;;;5066603;28;20059;-62
2022/10/31 06:23:11;;;;;;;67.07;30.47;;;;;;;;;;5069232;28;20181;-62
2022/10/31 06:25:37;;;;;;;50.53;27.20;;;;;;;;;;5069098;28;20138;-62
2022/10/31 06:28:03;;;;;;;68.40;29.73;;;;;;;;;;5068913;28;20044;-62
2022/10/31 06:30:29;;;;;;;59.17;26.87;;;;;;;;;;5067968;28;20040;-62
2022/10/31 06:33:01;;;;;;;72.33;30.73;;;;;;;;;;5069284;28;20041;-62
2022/10/31 06:35:27;;;;;;;62.77;27.07;;;;;;;;;;5066742;28;20056;-62
2022/10/31 06:37:54;;;;;;;60.57;27.17;;;;;;;;;;5066998;28;20045;-62
2022/10/31 06:40:20;;;;;;;66.23;29.00;;;;;;;;;;5067111;28;20044;-62
2022/10/31 06:42:46;;;;;;;82.23;33.63;;;;;;;;;;5068640;28;20040;-62
2022/10/31 06:45:12;;;;;;;69.03;32.33;;;;;;;;;;5067997;28;20048;-62
2022/10/31 06:47:38;;;;;;;79.67;34.30;;;;;;;;;;5067014;28;20051;-63
2022/10/31 06:50:05;;;;;;;88.07;36.00;;;;;;;;;;5067375;28;20040;-62
2022/10/31 06:52:31;;;;;;;94.67;38.43;;;;;;;;;;5067232;28;20570;-62
2022/10/31 06:54:57;;;;;;;125.43;44.20;;;;;;;;;;5068871;28;20054;-62
2022/10/31 06:57:23;;;;;;;125.13;43.80;;;;;;;;;;5067292;28;20037;-62
2022/10/31 06:59:49;;;;;;;96.93;38.80;;;;;;;;;;5068263;28;20040;-62
2022/10/31 07:02:15;;;;;;;112.10;41.67;;;;;;;;;;5068299;28;20050;-62
2022/10/31 07:04:41;;;;;;;123.13;44.63;;;;;;;;;;5066700;28;20051;-62
2022/10/31 07:07:07;;;;;;;77.03;33.03;;;;;;;;;;5067166;28;20410;-62
2022/10/31 07:09:33;;;;;;;65.13;30.00;;;;;;;;;;5067764;28;20045;-62
2022/10/31 07:11:59;;;;;;;75.37;34.63;;;;;;;;;;5068056;28;20113;-62
2022/10/31 07:14:25;;;;;;;81.10;37.87;;;;;;;;;;5067638;28;20123;-62
2022/10/31 07:16:51;;;;;;;90.43;41.80;;;;;;;;;;5067465;28;20043;-62
2022/10/31 07:19:17;;;;;;;110.80;49.23;;;;;;;;;;5067779;28;20059;-62
2022/10/31 07:21:43;;;;;;;101.30;46.80;;;;;;;;;;5067488;28;20048;-62
2022/10/31 07:24:09;;;;;;;96.93;47.77;;;;;;;;;;5066567;28;20048;-62
2022/10/31 07:26:35;;;;;;;128.10;56.40;;;;;;;;;;5067713;28;20052;-62
2022/10/31 07:29:01;;;;;;;127.23;57.30;;;;;;;;;;5067227;28;20037;-62
2022/10/31 07:31:28;;;;;;;167.93;64.80;;;;;;;;;;5067638;28;20056;-62
2022/10/31 07:33:54;;;;;;;197.30;70.60;;;;;;;;;;5065621;28;20056;-62
2022/10/31 07:36:20;;;;;;;225.37;74.17;;;;;;;;;;5066844;28;20048;-62
2022/10/31 07:38:46;;;;;;;158.40;66.50;;;;;;;;;;5065793;28;20435;-62
2022/10/31 07:41:12;;;;;;;244.60;80.37;;;;;;;;;;5066673;28;20109;-62
2022/10/31 07:43:38;;;;;;;200.13;74.30;;;;;;;;;;5067816;28;20052;-62
2022/10/31 07:46:04;;;;;;;275.37;84.10;;;;;;;;;;5067704;28;20402;-62
2022/10/31 07:48:30;;;;;;;378.90;97.93;;;;;;;;;;5067821;28;20097;-62
2022/10/31 07:50:56;;;;;;;256.67;80.83;;;;;;;;;;5065029;28;20083;-62
2022/10/31 07:53:22;;;;;;;307.63;88.87;;;;;;;;;;5067964;28;20036;-62
2022/10/31 07:55:48;;;;;;;194.03;70.23;;;;;;;;;;5065931;28;20052;-62
2022/10/31 07:58:15;;;;;;;256.57;81.57;;;;;;;;;;5062420;28;20482;-62
2022/10/31 08:00:42;;;;;;;216.73;74.00;;;;;;;;;;5067276;28;20047;-62
2022/10/31 08:03:12;;;;;;;194.17;67.23;;;;;;;;;;5067541;28;20052;-62
2022/10/31 08:05:40;;;;;;;242.23;76.63;;;;;;;;;;5066185;28;20146;-62
2022/10/31 08:08:07;;;;;;;227.67;74.37;;;;;;;;;;5064652;28;20124;-62
2022/10/31 08:10:33;;;;;;;173.83;62.50;;;;;;;;;;5066833;28;20068;-62
2022/10/31 08:13:02;;;;;;;262.87;76.57;;;;;;;;;;5065330;28;20128;-62
2022/10/31 08:15:29;;;;;;;329.90;89.33;;;;;;;;;;5069121;28;20044;-62
2022/10/31 08:17:55;;;;;;;285.97;83.83;;;;;;;;;;5070711;28;20098;-62
2022/10/31 08:20:21;;;;;;;308.03;89.40;;;;;;;;;;5070093;28;20483;-62
2022/10/31 08:22:54;;;;;;;360.23;97.43;;;;;;;;;;5071704;28;20036;-62
2022/10/31 08:25:20;;;;;;;252.38;80.53;;;;;;;;;;5068656;28;20390;-62
2022/10/31 08:27:53;;;;;;;262.93;80.90;;;;;;;;;;5070349;28;20076;-62
2022/10/31 08:30:23;;;;;;;308.60;88.72;;;;;;;;;;5067071;28;20048;-62
2022/10/31 08:32:57;;;;;;;254.93;82.23;;;;;;;;;;5070805;28;20044;-62
2022/10/31 08:35:24;;;;;;;325.73;89.10;;;;;;;;;;5067708;28;20101;-62
2022/10/31 08:37:54;;;;;;;334.60;90.73;;;;;;;;;;5071135;28;20052;-62
2022/10/31 08:40:20;;;;;;;292.83;85.50;;;;;;;;;;5070062;28;20043;-62
2022/10/31 08:42:46;;;;;;;293.27;87.23;;;;;;;;;;5071426;28;20055;-62
2022/10/31 08:45:12;;;;;;;254.30;84.13;;;;;;;;;;5070910;28;20040;-62
2022/10/31 08:47:38;;;;;;;290.13;90.63;;;;;;;;;;5068610;28;20574;-62
2022/10/31 08:50:04;;;;;;;220.77;80.23;;;;;;;;;;5069029;28;20040;-62
2022/10/31 08:52:30;;;;;;;215.87;80.53;;;;;;;;;;5069286;28;20049;-62
2022/10/31 08:54:56;;;;;;;212.13;79.90;;;;;;;;;;5069731;28;20544;-62
2022/10/31 08:57:22;;;;;;;162.63;66.67;;;;;;;;;;5069327;28;20040;-62
2022/10/31 08:59:48;;;;;;;177.27;73.23;;;;;;;;;;5069063;28;20040;-62
2022/10/31 09:02:14;;;;;;;217.43;81.53;;;;;;;;;;5067325;28;20410;-62
2022/10/31 09:04:40;;;;;;;172.40;70.97;;;;;;;;;;5059355;28;20102;-62
2022/10/31 09:07:06;;;;;;;147.83;65.63;;;;;;;;;;5065248;28;20087;-62
2022/10/31 09:09:32;;;;;;;142.83;65.67;;;;;;;;;;5068840;28;20072;-62
2022/10/31 09:11:58;;;;;;;133.17;63.13;;;;;;;;;;5069407;28;20049;-62
2022/10/31 09:14:24;;;;;;;139.40;63.47;;;;;;;;;;5068757;28;20041;-62
2022/10/31 09:16:51;;;;;;;123.13;60.00;;;;;;;;;;5067126;28;20064;-62
2022/10/31 09:19:17;;;;;;;110.77;57.40;;;;;;;;;;5068704;28;20044;-62
2022/10/31 09:21:43;;;;;;;119.70;59.80;;;;;;;;;;5068903;28;20048;-62
2022/10/31 09:24:09;;;;;;;107.30;54.73;;;;;;;;;;5069321;28;20052;-62
2022/10/31 09:26:35;;;;;;;109.73;54.33;;;;;;;;;;5067305;28;20052;-62
2022/10/31 09:29:01;;;;;;;111.17;57.17;;;;;;;;;;5069589;28;20044;-62
2022/10/31 09:31:28;;;;;;;98.73;53.07;;;;;;;;;;5069014;28;20058;-62
2022/10/31 09:33:54;;;;;;;107.07;55.70;;;;;;;;;;5069128;28;20143;-62
2022/10/31 09:36:20;;;;;;;116.10;58.47;;;;;;;;;;5070264;28;20045;-62
2022/10/31 09:38:46;;;;;;;109.33;54.33;;;;;;;;;;5069896;28;20039;-62
2022/10/31 09:41:12;;;;;;;88.30;48.50;;;;;;;;;;5070360;28;20043;-62
2022/10/31 09:43:47;;;;;;;107.07;52.53;;;;;;;;;;5069840;28;20041;-62
2022/10/31 09:46:33;;;;;;;89.03;47.43;;;;;;;;;;5069612;28;20045;-62
2022/10/31 09:48:59;;;;;;;86.23;45.33;;;;;;;;;;5065515;28;20047;-62
2022/10/31 09:51:33;;;;;;;78.17;44.03;;;;;;;;;;5069313;28;20040;-62
2022/10/31 09:54:05;;;;;;;69.87;41.40;;;;;;;;;;5068410;28;20037;-62
2022/10/31 09:56:32;;;;;;;85.53;48.87;;;;;;;;;;5068355;28;20054;-62
2022/10/31 09:59:00;;;;;;;77.23;44.93;;;;;;;;;;5069539;28;20036;-63
2022/10/31 10:01:26;;;;;;;82.53;47.63;;;;;;;;;;5067295;28;20166;-63
2022/10/31 10:03:54;;;;;;;77.93;48.27;;;;;;;;;;5068863;28;20469;-62
2022/10/31 10:06:25;;;;;;;71.23;46.80;;;;;;;;;;5067758;28;20474;-62
2022/10/31 10:08:51;;;;;;;75.80;46.47;;;;;;;;;;5068295;28;20051;-62
2022/10/31 10:11:38;;;;;;;64.93;39.83;;;;;;;;;;5068714;28;20036;-62
2022/10/31 10:14:04;;;;;;;62.27;38.83;;;;;;;;;;5067923;28;20055;-63
2022/10/31 10:16:39;;;;;;;56.63;36.10;;;;;;;;;;5068471;28;20052;-62
2022/10/31 10:19:24;;;;;;;55.37;33.43;;;;;;;;;;5068610;28;20125;-62
2022/10/31 10:22:08;;;;;;;52.60;33.10;;;;;;;;;;5067656;28;20056;-62
2022/10/31 10:24:53;;;;;;;44.17;30.83;;;;;;;;;;5067740;28;20048;-62
2022/10/31 10:27:28;;;;;;;42.47;30.13;;;;;;;;;;5067801;28;20163;-63
2022/10/31 10:30:06;;;;;;;31.63;23.60;;;;;;;;;;5066214;28;20051;-63
2022/10/31 10:32:39;;;;;;;27.20;21.97;;;;;;;;;;5068630;28;20134;-63
2022/10/31 10:35:25;;;;;;;27.50;19.08;;;;;;;;;;5068374;28;20517;-62
2022/10/31 10:38:00;;;;;;;30.17;18.13;;;;;;;;;;5066415;28;20037;-62
2022/10/31 10:40:27;;;;;;;30.37;18.83;;;;;;;;;;5066765;28;20036;-62
2022/10/31 10:48:39;;;;;;;30.70;19.63;;;;;;;;;;5062732;28;20044;-62
2022/10/31 10:51:07;;;;;;;28.73;18.73;;;;;;;;;;5067171;28;20123;-62
2022/10/31 10:53:35;;;;;;;25.63;17.73;;;;;;;;;;5066767;28;20525;-62
2022/10/31 10:56:04;;;;;;;25.90;17.47;;;;;;;;;;5068633;28;20072;-63
2022/10/31 10:58:30;;;;;;;24.77;18.63;;;;;;;;;;5063993;28;20416;-62
2022/10/31 11:00:56;;;;;;;24.90;17.00;;;;;;;;;;5068819;28;20071;-62
2022/10/31 11:03:22;;;;;;;25.47;17.50;;;;;;;;;;5066093;28;20049;-62
2022/10/31 11:05:58;;;;;;;24.13;16.83;;;;;;;;;;5068443;28;20477;-63
2022/10/31 11:08:24;;;;;;;22.93;16.87;;;;;;;;;;5067955;28;20040;-63
2022/10/31 11:11:10;;;;;;;24.73;15.97;;;;;;;;;;5068436;28;20044;-62
2022/10/31 11:13:36;;;;;;;24.30;15.90;;;;;;;;;;5068694;28;20060;-62
2022/10/31 11:16:09;;;;;;;19.97;14.03;;;;;;;;;;5068410;28;20048;-63
2022/10/31 11:18:38;;;;;;;25.83;14.90;;;;;;;;;;5068206;28;20040;-62
2022/10/31 11:21:05;;;;;;;20.07;13.17;;;;;;;;;;5068119;28;20064;-62
2022/10/31 11:23:32;;;;;;;23.33;13.70;;;;;;;;;;5068398;28;20935;-64
2022/10/31 11:26:02;;;;;;;17.83;12.33;;;;;;;;;;5067777;28;20044;-64
2022/10/31 11:28:29;;;;;;;21.17;12.47;;;;;;;;;;5066430;28;20138;-64
2022/10/31 11:30:59;;;;;;;19.30;12.83;;;;;;;;;;5068491;28;20178;-64
2022/10/31 11:33:28;;;;;;;21.97;12.83;;;;;;;;;;5068303;28;20040;-64
2022/10/31 11:35:55;;;;;;;18.10;12.37;;;;;;;;;;5065713;28;20067;-64
2022/10/31 11:38:23;;;;;;;18.27;11.67;;;;;;;;;;5065846;28;20064;-64
2022/10/31 11:40:54;;;;;;;16.27;11.40;;;;;;;;;;5065127;28;20110;-64
2022/10/31 11:43:20;;;;;;;17.27;11.60;;;;;;;;;;5066274;28;20063;-64
2022/10/31 11:45:46;;;;;;;16.10;10.20;;;;;;;;;;5065733;28;20040;-64
2022/10/31 11:48:23;;;;;;;22.43;10.60;;;;;;;;;;5065857;28;20544;-64
2022/10/31 11:50:50;;;;;;;17.87;10.47;;;;;;;;;;5066882;28;20083;-64
2022/10/31 11:53:18;;;;;;;15.43;10.70;;;;;;;;;;5067938;28;20032;-64
2022/10/31 11:55:45;;;;;;;17.43;9.70;;;;;;;;;;5067020;28;20048;-64
2022/10/31 11:58:24;;;;;;;14.57;10.10;;;;;;;;;;5067595;28;20484;-64
2022/10/31 12:00:52;;;;;;;18.03;9.97;;;;;;;;;;5067469;28;20515;-64
2022/10/31 12:03:24;;;;;;;16.43;9.57;;;;;;;;;;5063286;28;20059;-64
2022/10/31 12:06:11;;;;;;;16.17;10.60;;;;;;;;;;5066724;28;20735;-64
2022/10/31 12:08:38;;;;;;;16.10;10.00;;;;;;;;;;5065887;28;20552;-64
2022/10/31 12:11:15;;;;;;;14.97;10.20;;;;;;;;;;5064876;28;20084;-64
2022/10/31 12:13:41;;;;;;;17.23;10.03;;;;;;;;;;5065717;28;20056;-63
2022/10/31 12:16:10;;;;;;;14.17;8.80;;;;;;;;;;5067796;28;20118;-64
2022/10/31 12:18:49;;;;;;;13.33;8.13;;;;;;;;;;5066003;28;20044;-63
2022/10/31 12:21:27;;;;;;;12.47;8.03;;;;;;;;;;5063094;28;20050;-64
2022/10/31 12:24:02;;;;;;;14.23;8.77;;;;;;;;;;5067140;28;20431;-64
2022/10/31 12:26:31;;;;;;;14.90;7.73;;;;;;;;;;5062954;28;20048;-64
2022/10/31 12:29:21;;;;;;;14.77;8.20;;;;;;;;;;5064702;28;20094;-64
2022/10/31 12:31:50;;;;;;;16.50;8.57;;;;;;;;;;5067725;28;20513;-64
2022/10/31 12:34:35;;;;;;;14.97;8.03;;;;;;;;;;5066338;28;20040;-64
2022/10/31 12:37:16;;;;;;;15.07;8.57;;;;;;;;;;5067309;28;20040;-64
2022/10/31 12:39:53;;;;;;;15.00;8.70;;;;;;;;;;5067584;28;20055;-64
2022/10/31 12:42:28;;;;;;;14.80;9.20;;;;;;;;;;5066212;28;20044;-64
2022/10/31 12:44:54;;;;;;;18.03;8.63;;;;;;;;;;5066969;28;20462;-63
2022/10/31 12:47:28;;;;;;;14.97;8.13;;;;;;;;;;5066089;28;20049;-64
2022/10/31 12:49:57;;;;;;;17.37;8.00;;;;;;;;;;5066297;28;20040;-63
2022/10/31 12:52:23;;;;;;;11.97;7.73;;;;;;;;;;5066761;28;20571;-63
2022/10/31 12:55:03;;;;;;;14.00;8.17;;;;;;;;;;5067006;28;20040;-63
2022/10/31 12:57:36;;;;;;;13.83;6.87;;;;;;;;;;5064920;28;20051;-64
2022/10/31 13:00:20;;;;;;;14.90;7.13;;;;;;;;;;5066015;28;20044;-64
2022/10/31 13:02:56;;;;;;;15.33;8.47;;;;;;;;;;5069019;28;20045;-64
2022/10/31 13:05:31;;;;;;;10.17;6.73;;;;;;;;;;5066741;28;20098;-64
2022/10/31 13:08:08;;;;;;;10.47;6.87;;;;;;;;;;5068324;28;20040;-64
2022/10/31 13:10:45;;;;;;;11.83;6.80;;;;;;;;;;5068115;28;20045;-64
2022/10/31 13:13:23;;;;;;;8.07;6.17;;;;;;;;;;5070485;28;20048;-64
2022/10/31 13:15:52;;;;;;;11.10;6.73;;;;;;;;;;5069974;28;20049;-64
2022/10/31 13:18:24;;;;;;;11.10;6.63;;;;;;;;;;5070720;28;20418;-63
2022/10/31 13:20:51;;;;;;;15.40;7.50;;;;;;;;;;5069727;28;20040;-63
2022/10/31 13:23:23;;;;;;;10.60;6.83;;;;;;;;;;5069258;28;20120;-63
2022/10/31 13:25:51;;;;;;;9.80;6.60;;;;;;;;;;5069536;28;20137;-63
2022/10/31 13:28:34;;;;;;;13.90;7.20;;;;;;;;;;5070630;28;20471;-63
2022/10/31 13:31:01;;;;;;;;;;;;;;;;;;5070784;28;20040;-64
2022/10/31 13:33:33;;;;;;;13.13;7.30;;;;;;;;;;5069892;28;19924;-64
2022/10/31 13:35:59;;;;;;;16.20;7.93;;;;;;;;;;5063304;28;20183;-63
2022/10/31 13:38:52;;;;;;;12.13;7.30;;;;;;;;;;5069779;28;20036;-64
2022/10/31 13:41:30;;;;;;;13.97;7.53;;;;;;;;;;5067583;28;20040;-64
2022/10/31 13:44:14;;;;;;;12.90;7.87;;;;;;;;;;5066561;28;20055;-63
2022/10/31 13:46:42;;;;;;;13.10;7.20;;;;;;;;;;5069693;28;20127;-64
2022/10/31 13:49:26;;;;;;;11.97;7.77;;;;;;;;;;5065883;28;20036;-63
2022/10/31 13:51:52;;;;;;;13.77;8.27;;;;;;;;;;5068595;28;20064;-64
2022/10/31 13:54:24;;;;;;;13.20;7.73;;;;;;;;;;5067641;28;20040;-63
2022/10/31 13:56:53;;;;;;;15.30;7.90;;;;;;;;;;5064058;28;20117;-64
2022/10/31 13:59:21;;;;;;;10.20;7.30;;;;;;;;;;5065774;28;20049;-64
2022/10/31 14:01:48;;;;;;;13.63;7.50;;;;;;;;;;5068809;28;20064;-64
2022/10/31 14:04:14;;;;;;;10.87;6.67;;;;;;;;;;5068300;28;20037;-63
2022/10/31 14:06:40;;;;;;;14.07;6.67;;;;;;;;;;5067079;28;20084;-64
2022/10/31 14:09:16;;;;;;;10.53;6.00;;;;;;;;;;5069193;28;20389;-63
2022/10/31 14:11:46;;;;;;;10.43;7.17;;;;;;;;;;5068208;28;20048;-63
2022/10/31 14:14:12;;;;;;;11.13;7.27;;;;;;;;;;5067599;28;20453;-63
2022/10/31 14:16:41;;;;;;;14.13;7.17;;;;;;;;;;5067419;28;20181;-63
2022/10/31 14:19:08;;;;;;;11.57;7.13;;;;;;;;;;5067534;28;20036;-63
2022/10/31 14:21:42;;;;;;;16.40;7.63;;;;;;;;;;5068671;28;20056;-63
2022/10/31 14:24:34;;;;;;;13.37;8.07;;;;;;;;;;5066967;28;20032;-63
2022/10/31 14:27:23;;;;;;;14.20;8.33;;;;;;;;;;5064745;28;20127;-63
2022/10/31 14:29:49;;;;;;;15.17;8.13;;;;;;;;;;5059853;28;20040;-63
2022/10/31 14:32:22;;;;;;;14.40;8.90;;;;;;;;;;5060029;28;20040;-64